sensor_id;sensor_type;location;lat;lon;timestamp;pressure;altitude;pressure_sealevel;temperature;humidity
48364;BME280;34170;54.364;18.582;2023-05-01T00:01:34;100815.19;;;5.07;84.24
48364;BME280;34170;54.364;18.582;2023-05-01T00:04:02;100806.63;;;5.02;84.67
48364;BME280;34170;54.364;18.582;2023-05-01T00:06:30;100770.19;;;5.03;84.22
48364;BME280;34170;54.364;18.582;2023-05-01T00:08:59;100772.16;;;5.13;83.68
48364;BME280;34170;54.364;18.582;2023-05-01T00:11:27;100802.97;;;5.32;83.45
48364;BME280;34170;54.364;18.582;2023-05-01T00:13:54;100805.16;;;5.25;83.61
48364;BME280;34170;54.364;18.582;2023-05-01T00:16:21;100795.84;;;5.18;83.76
48364;BME280;34170;54.364;18.582;2023-05-01T00:18:49;100777.13;;;4.91;85.05
48364;BME280;34170;54.364;18.582;2023-05-01T00:21:16;100806.84;;;4.99;85.00
48364;BME280;34170;54.364;18.582;2023-05-01T00:23:43;100807.19;;;5.07;85.68
48364;BME280;34170;54.364;18.582;2023-05-01T00:26:11;100777.72;;;4.82;86.22
48364;BME280;34170;54.364;18.582;2023-05-01T00:28:42;100777.22;;;4.75;86.73
48364;BME280;34170;54.364;18.582;2023-05-01T00:31:09;100753.09;;;4.64;86.36
48364;BME280;34170;54.364;18.582;2023-05-01T00:33:37;100803.19;;;5.00;86.74
48364;BME280;34170;54.364;18.582;2023-05-01T00:36:05;100792.25;;;5.05;86.64
48364;BME280;34170;54.364;18.582;2023-05-01T00:38:32;100805.28;;;4.95;87.05
48364;BME280;34170;54.364;18.582;2023-05-01T00:40:59;100792.94;;;4.94;87.17
48364;BME280;34170;54.364;18.582;2023-05-01T00:43:27;100773.53;;;4.92;86.99
48364;BME280;34170;54.364;18.582;2023-05-01T00:45:54;100795.41;;;4.68;88.99
48364;BME280;34170;54.364;18.582;2023-05-01T00:48:21;100764.69;;;4.48;90.09
48364;BME280;34170;54.364;18.582;2023-05-01T00:50:49;100800.56;;;4.71;90.04
48364;BME280;34170;54.364;18.582;2023-05-01T00:53:17;100806.47;;;4.76;90.78
48364;BME280;34170;54.364;18.582;2023-05-01T00:55:46;100755.66;;;4.65;90.59
48364;BME280;34170;54.364;18.582;2023-05-01T00:58:16;100775.31;;;4.77;90.40
48364;BME280;34170;54.364;18.582;2023-05-01T01:00:43;100758.50;;;4.48;91.18
48364;BME280;34170;54.364;18.582;2023-05-01T01:03:11;100770.59;;;4.68;90.27
48364;BME280;34170;54.364;18.582;2023-05-01T01:05:41;100788.53;;;4.93;89.29
48364;BME280;34170;54.364;18.582;2023-05-01T01:08:28;100770.00;;;4.77;89.10
48364;BME280;34170;54.364;18.582;2023-05-01T01:11:19;100804.72;;;4.90;89.64
48364;BME280;34170;54.364;18.582;2023-05-01T01:14:20;100795.97;;;4.73;90.41
48364;BME280;34170;54.364;18.582;2023-05-01T01:17:07;100782.47;;;4.76;89.49
48364;BME280;34170;54.364;18.582;2023-05-01T01:19:59;100812.16;;;4.99;89.32
48364;BME280;34170;54.364;18.582;2023-05-01T01:22:30;100794.88;;;4.77;88.41
48364;BME280;34170;54.364;18.582;2023-05-01T01:25:28;100763.25;;;4.71;89.71
48364;BME280;34170;54.364;18.582;2023-05-01T01:36:06;100757.75;;;4.46;89.16
48364;BME280;34170;54.364;18.582;2023-05-01T01:41:34;100776.75;;;4.39;91.59
48364;BME280;34170;54.364;18.582;2023-05-01T01:44:08;100801.09;;;4.33;92.59
48364;BME280;34170;54.364;18.582;2023-05-01T01:46:40;100765.72;;;4.31;91.59
48364;BME280;34170;54.364;18.582;2023-05-01T01:49:14;100800.38;;;4.60;91.95
48364;BME280;34170;54.364;18.582;2023-05-01T01:51:47;100792.53;;;4.43;92.23
48364;BME280;34170;54.364;18.582;2023-05-01T01:54:21;100787.78;;;4.33;92.54
48364;BME280;34170;54.364;18.582;2023-05-01T01:56:50;100793.00;;;4.20;93.45
48364;BME280;34170;54.364;18.582;2023-05-01T01:59:20;100779.78;;;4.19;94.19
48364;BME280;34170;54.364;18.582;2023-05-01T02:01:50;100786.88;;;4.18;95.08
48364;BME280;34170;54.364;18.582;2023-05-01T02:04:20;100758.00;;;4.27;94.05
48364;BME280;34170;54.364;18.582;2023-05-01T02:06:48;100782.84;;;4.42;93.55
48364;BME280;34170;54.364;18.582;2023-05-01T02:09:18;100720.97;;;4.08;93.68
48364;BME280;34170;54.364;18.582;2023-05-01T02:11:48;100761.34;;;4.30;93.55
48364;BME280;34170;54.364;18.582;2023-05-01T02:14:17;100783.41;;;4.47;92.70
48364;BME280;34170;54.364;18.582;2023-05-01T02:16:47;100760.56;;;4.28;93.13
48364;BME280;34170;54.364;18.582;2023-05-01T02:19:15;100750.09;;;4.25;93.71
48364;BME280;34170;54.364;18.582;2023-05-01T02:21:44;100739.19;;;4.30;93.32
48364;BME280;34170;54.364;18.582;2023-05-01T02:24:14;100782.84;;;4.42;93.06
48364;BME280;34170;54.364;18.582;2023-05-01T02:26:46;100774.47;;;4.48;93.28
48364;BME280;34170;54.364;18.582;2023-05-01T02:29:15;100749.00;;;4.29;93.08
48364;BME280;34170;54.364;18.582;2023-05-01T02:31:43;100751.25;;;4.21;93.43
48364;BME280;34170;54.364;18.582;2023-05-01T02:34:10;100780.84;;;4.45;93.47
48364;BME280;34170;54.364;18.582;2023-05-01T02:36:38;100784.56;;;4.43;92.78
48364;BME280;34170;54.364;18.582;2023-05-01T02:39:05;100774.56;;;4.46;92.78
48364;BME280;34170;54.364;18.582;2023-05-01T02:41:34;100766.56;;;4.32;93.50
48364;BME280;34170;54.364;18.582;2023-05-01T02:44:03;100753.59;;;4.11;93.92
48364;BME280;34170;54.364;18.582;2023-05-01T02:46:34;100731.53;;;4.09;94.11
48364;BME280;34170;54.364;18.582;2023-05-01T02:49:04;100764.44;;;4.08;94.33
48364;BME280;34170;54.364;18.582;2023-05-01T02:51:34;100767.97;;;4.23;95.04
48364;BME280;34170;54.364;18.582;2023-05-01T02:54:01;100759.16;;;4.23;94.42
48364;BME280;34170;54.364;18.582;2023-05-01T02:56:30;100754.50;;;4.26;94.14
48364;BME280;34170;54.364;18.582;2023-05-01T02:58:57;100761.91;;;4.21;94.62
48364;BME280;34170;54.364;18.582;2023-05-01T03:01:25;100763.41;;;4.25;94.46
48364;BME280;34170;54.364;18.582;2023-05-01T03:03:53;100747.66;;;4.22;94.73
48364;BME280;34170;54.364;18.582;2023-05-01T03:06:20;100753.53;;;4.27;94.25
48364;BME280;34170;54.364;18.582;2023-05-01T03:08:48;100720.31;;;4.18;93.92
48364;BME280;34170;54.364;18.582;2023-05-01T03:11:16;100716.97;;;4.00;93.61
48364;BME280;34170;54.364;18.582;2023-05-01T03:13:43;100759.72;;;4.28;94.01
48364;BME280;34170;54.364;18.582;2023-05-01T03:16:12;100754.41;;;4.28;95.39
48364;BME280;34170;54.364;18.582;2023-05-01T03:18:39;100756.03;;;4.59;93.60
48364;BME280;34170;54.364;18.582;2023-05-01T03:21:06;100722.63;;;4.53;92.11
48364;BME280;34170;54.364;18.582;2023-05-01T03:23:34;100719.78;;;4.71;91.43
48364;BME280;34170;54.364;18.582;2023-05-01T03:26:04;100750.44;;;5.05;90.21
48364;BME280;34170;54.364;18.582;2023-05-01T03:28:31;100742.22;;;5.23;88.92
48364;BME280;34170;54.364;18.582;2023-05-01T03:30:59;100743.16;;;5.49;86.76
48364;BME280;34170;54.364;18.582;2023-05-01T03:33:27;100742.25;;;5.63;86.72
48364;BME280;34170;54.364;18.582;2023-05-01T03:36:02;100750.19;;;5.77;84.64
48364;BME280;34170;54.364;18.582;2023-05-01T03:38:31;100703.63;;;6.21;80.83
48364;BME280;34170;54.364;18.582;2023-05-01T03:41:08;100748.50;;;7.04;75.31
48364;BME280;34170;54.364;18.582;2023-05-01T03:43:48;100747.31;;;7.81;73.20
48364;BME280;34170;54.364;18.582;2023-05-01T03:46:39;100746.72;;;8.35;67.29
48364;BME280;34170;54.364;18.582;2023-05-01T03:49:12;100752.41;;;8.19;69.98
48364;BME280;34170;54.364;18.582;2023-05-01T03:51:45;100741.31;;;8.13;66.36
48364;BME280;34170;54.364;18.582;2023-05-01T03:54:13;100711.75;;;8.37;65.00
48364;BME280;34170;54.364;18.582;2023-05-01T03:56:56;100738.81;;;8.90;63.65
48364;BME280;34170;54.364;18.582;2023-05-01T03:59:25;100746.91;;;9.78;58.33
48364;BME280;34170;54.364;18.582;2023-05-01T04:01:53;100724.38;;;10.94;56.03
48364;BME280;34170;54.364;18.582;2023-05-01T04:04:20;100751.56;;;11.60;50.07
48364;BME280;34170;54.364;18.582;2023-05-01T04:06:54;100720.78;;;12.59;46.06
48364;BME280;34170;54.364;18.582;2023-05-01T04:09:22;100750.91;;;13.47;45.44
48364;BME280;34170;54.364;18.582;2023-05-01T04:11:49;100720.91;;;13.50;45.09
48364;BME280;34170;54.364;18.582;2023-05-01T04:14:17;100746.25;;;14.38;42.95
48364;BME280;34170;54.364;18.582;2023-05-01T04:16:44;100750.88;;;14.98;41.11
48364;BME280;34170;54.364;18.582;2023-05-01T04:19:12;100711.59;;;15.02;38.85
48364;BME280;34170;54.364;18.582;2023-05-01T04:21:42;100728.72;;;15.02;40.71
48364;BME280;34170;54.364;18.582;2023-05-01T04:24:09;100757.22;;;15.98;38.92
48364;BME280;34170;54.364;18.582;2023-05-01T04:26:37;100721.47;;;15.19;38.43
48364;BME280;34170;54.364;18.582;2023-05-01T04:29:06;100733.78;;;15.73;38.88
48364;BME280;34170;54.364;18.582;2023-05-01T04:31:33;100741.09;;;15.72;36.91
48364;BME280;34170;54.364;18.582;2023-05-01T04:34:01;100760.34;;;14.94;38.99
48364;BME280;34170;54.364;18.582;2023-05-01T04:36:28;100733.47;;;12.86;44.09
48364;BME280;34170;54.364;18.582;2023-05-01T04:38:59;100758.09;;;14.37;41.10
48364;BME280;34170;54.364;18.582;2023-05-01T04:41:27;100763.72;;;14.17;41.22
48364;BME280;34170;54.364;18.582;2023-05-01T04:43:55;100760.81;;;13.92;42.70
48364;BME280;34170;54.364;18.582;2023-05-01T04:46:23;100767.91;;;16.08;38.34
48364;BME280;34170;54.364;18.582;2023-05-01T04:48:50;100775.69;;;16.36;37.64
48364;BME280;34170;54.364;18.582;2023-05-01T04:51:18;100768.78;;;16.81;36.19
48364;BME280;34170;54.364;18.582;2023-05-01T04:53:46;100766.13;;;15.66;39.08
48364;BME280;34170;54.364;18.582;2023-05-01T04:56:21;100767.34;;;16.62;36.11
48364;BME280;34170;54.364;18.582;2023-05-01T04:58:52;100744.59;;;17.73;34.99
48364;BME280;34170;54.364;18.582;2023-05-01T05:01:22;100774.44;;;19.26;32.12
48364;BME280;34170;54.364;18.582;2023-05-01T05:03:50;100771.00;;;19.53;32.78
48364;BME280;34170;54.364;18.582;2023-05-01T05:06:18;100778.38;;;20.46;30.89
48364;BME280;34170;54.364;18.582;2023-05-01T05:08:46;100785.91;;;22.10;28.39
48364;BME280;34170;54.364;18.582;2023-05-01T05:11:14;100785.31;;;23.78;25.84
48364;BME280;34170;54.364;18.582;2023-05-01T05:13:54;100779.97;;;24.47;25.42
48364;BME280;34170;54.364;18.582;2023-05-01T05:16:22;100785.31;;;26.32;22.37
48364;BME280;34170;54.364;18.582;2023-05-01T05:18:49;100781.81;;;27.19;21.74
48364;BME280;34170;54.364;18.582;2023-05-01T05:21:17;100774.53;;;25.58;22.98
48364;BME280;34170;54.364;18.582;2023-05-01T05:23:52;100771.13;;;27.92;20.47
48364;BME280;34170;54.364;18.582;2023-05-01T05:26:19;100774.47;;;27.37;21.37
48364;BME280;34170;54.364;18.582;2023-05-01T05:28:49;100797.91;;;29.11;20.01
48364;BME280;34170;54.364;18.582;2023-05-01T05:31:17;100769.38;;;29.10;19.94
48364;BME280;34170;54.364;18.582;2023-05-01T05:33:44;100777.34;;;30.00;18.36
48364;BME280;34170;54.364;18.582;2023-05-01T05:36:14;100792.47;;;29.65;18.28
48364;BME280;34170;54.364;18.582;2023-05-01T05:38:42;100792.28;;;31.06;17.23
48364;BME280;34170;54.364;18.582;2023-05-01T05:41:13;100795.09;;;31.90;16.28
48364;BME280;34170;54.364;18.582;2023-05-01T05:43:41;100797.94;;;32.31;16.63
48364;BME280;34170;54.364;18.582;2023-05-01T05:46:08;100792.38;;;32.16;16.30
48364;BME280;34170;54.364;18.582;2023-05-01T05:48:38;100775.66;;;32.16;16.26
48364;BME280;34170;54.364;18.582;2023-05-01T05:51:05;100781.44;;;30.57;17.63
48364;BME280;34170;54.364;18.582;2023-05-01T05:53:33;100785.47;;;30.07;17.36
48364;BME280;34170;54.364;18.582;2023-05-01T05:56:01;100778.88;;;28.24;19.15
48364;BME280;34170;54.364;18.582;2023-05-01T05:58:30;100771.69;;;26.61;20.11
48364;BME280;34170;54.364;18.582;2023-05-01T06:00:57;100750.72;;;24.34;22.32
48364;BME280;34170;54.364;18.582;2023-05-01T06:03:25;100777.91;;;26.68;21.15
48364;BME280;34170;54.364;18.582;2023-05-01T06:05:57;100749.38;;;26.62;20.42
48364;BME280;34170;54.364;18.582;2023-05-01T06:08:25;100772.13;;;30.03;17.57
48364;BME280;34170;54.364;18.582;2023-05-01T06:10:53;100777.38;;;31.23;16.21
48364;BME280;34170;54.364;18.582;2023-05-01T06:13:20;100756.09;;;32.93;14.25
48364;BME280;34170;54.364;18.582;2023-05-01T06:15:49;100754.69;;;33.60;14.34
48364;BME280;34170;54.364;18.582;2023-05-01T06:18:16;100755.91;;;33.44;13.66
48364;BME280;34170;54.364;18.582;2023-05-01T06:20:44;100780.56;;;36.04;12.42
48364;BME280;34170;54.364;18.582;2023-05-01T06:23:12;100779.44;;;35.67;12.34
48364;BME280;34170;54.364;18.582;2023-05-01T06:25:51;100775.63;;;32.88;13.02
48364;BME280;34170;54.364;18.582;2023-05-01T06:28:19;100766.75;;;33.46;12.44
48364;BME280;34170;54.364;18.582;2023-05-01T06:30:46;100788.56;;;36.11;11.38
48364;BME280;34170;54.364;18.582;2023-05-01T06:33:16;100759.56;;;35.68;11.54
48364;BME280;34170;54.364;18.582;2023-05-01T06:35:47;100759.88;;;35.86;10.81
48364;BME280;34170;54.364;18.582;2023-05-01T06:38:15;100775.50;;;35.06;11.68
48364;BME280;34170;54.364;18.582;2023-05-01T06:40:42;100752.16;;;35.59;11.26
48364;BME280;34170;54.364;18.582;2023-05-01T06:43:13;100755.75;;;35.59;11.36
48364;BME280;34170;54.364;18.582;2023-05-01T06:45:40;100775.88;;;35.42;11.25
48364;BME280;34170;54.364;18.582;2023-05-01T06:48:08;100778.53;;;35.09;11.03
48364;BME280;34170;54.364;18.582;2023-05-01T06:50:35;100780.81;;;35.88;10.65
48364;BME280;34170;54.364;18.582;2023-05-01T06:53:03;100742.53;;;33.86;12.18
48364;BME280;34170;54.364;18.582;2023-05-01T06:55:30;100744.09;;;36.09;10.73
48364;BME280;34170;54.364;18.582;2023-05-01T06:58:01;100758.47;;;36.21;10.81
48364;BME280;34170;54.364;18.582;2023-05-01T07:00:49;100762.94;;;35.46;10.73
48364;BME280;34170;54.364;18.582;2023-05-01T07:03:17;100739.97;;;33.94;12.18
48364;BME280;34170;54.364;18.582;2023-05-01T07:05:44;100757.66;;;35.26;11.44
48364;BME280;34170;54.364;18.582;2023-05-01T07:08:12;100751.75;;;36.03;10.78
48364;BME280;34170;54.364;18.582;2023-05-01T07:10:40;100756.44;;;36.41;10.75
48364;BME280;34170;54.364;18.582;2023-05-01T07:13:09;100746.25;;;37.19;10.10
48364;BME280;34170;54.364;18.582;2023-05-01T07:15:36;100754.59;;;36.17;11.75
48364;BME280;34170;54.364;18.582;2023-05-01T07:18:04;100758.91;;;36.89;10.55
48364;BME280;34170;54.364;18.582;2023-05-01T07:20:34;100754.16;;;36.10;10.39
48364;BME280;34170;54.364;18.582;2023-05-01T07:23:02;100760.88;;;33.97;11.89
48364;BME280;34170;54.364;18.582;2023-05-01T07:25:33;100740.84;;;34.83;11.23
48364;BME280;34170;54.364;18.582;2023-05-01T07:28:00;100751.19;;;34.53;11.12
48364;BME280;34170;54.364;18.582;2023-05-01T07:30:30;100724.16;;;33.40;12.16
48364;BME280;34170;54.364;18.582;2023-05-01T07:32:59;100750.78;;;32.96;12.33
48364;BME280;34170;54.364;18.582;2023-05-01T07:35:27;100752.31;;;35.86;11.09
48364;BME280;34170;54.364;18.582;2023-05-01T07:37:54;100736.97;;;34.79;10.96
48364;BME280;34170;54.364;18.582;2023-05-01T07:40:21;100719.16;;;32.66;12.41
48364;BME280;34170;54.364;18.582;2023-05-01T07:42:49;100746.00;;;35.38;11.43
48364;BME280;34170;54.364;18.582;2023-05-01T07:45:20;100752.47;;;35.76;11.03
48364;BME280;34170;54.364;18.582;2023-05-01T07:47:47;100725.47;;;36.18;10.65
48364;BME280;34170;54.364;18.582;2023-05-01T07:50:15;100746.50;;;36.35;10.54
48364;BME280;34170;54.364;18.582;2023-05-01T07:52:43;100744.78;;;36.80;10.42
48364;BME280;34170;54.364;18.582;2023-05-01T07:55:11;100749.78;;;36.97;10.78
48364;BME280;34170;54.364;18.582;2023-05-01T07:57:39;100743.91;;;36.52;10.53
48364;BME280;34170;54.364;18.582;2023-05-01T08:00:07;100736.44;;;35.44;11.14
48364;BME280;34170;54.364;18.582;2023-05-01T08:02:39;100742.09;;;33.73;12.91
48364;BME280;34170;54.364;18.582;2023-05-01T08:05:08;100734.56;;;33.09;13.76
48364;BME280;34170;54.364;18.582;2023-05-01T08:07:35;100736.84;;;33.67;12.68
48364;BME280;34170;54.364;18.582;2023-05-01T08:10:03;100736.13;;;33.40;14.02
48364;BME280;34170;54.364;18.582;2023-05-01T08:12:31;100734.50;;;32.33;13.05
48364;BME280;34170;54.364;18.582;2023-05-01T08:14:58;100702.78;;;30.84;14.34
48364;BME280;34170;54.364;18.582;2023-05-01T08:17:26;100740.06;;;32.28;13.60
48364;BME280;34170;54.364;18.582;2023-05-01T08:19:53;100725.28;;;31.76;13.54
48364;BME280;34170;54.364;18.582;2023-05-01T08:22:23;100724.09;;;30.73;14.26
48364;BME280;34170;54.364;18.582;2023-05-01T08:24:50;100703.06;;;31.66;14.16
48364;BME280;34170;54.364;18.582;2023-05-01T08:27:19;100692.38;;;32.86;13.61
48364;BME280;34170;54.364;18.582;2023-05-01T08:29:47;100721.72;;;33.73;12.91
48364;BME280;34170;54.364;18.582;2023-05-01T08:32:16;100718.34;;;32.30;13.19
48364;BME280;34170;54.364;18.582;2023-05-01T08:34:43;100687.25;;;30.02;15.13
48364;BME280;34170;54.364;18.582;2023-05-01T08:37:11;100675.41;;;24.17;19.63
48364;BME280;34170;54.364;18.582;2023-05-01T08:39:38;100690.41;;;27.45;17.95
48364;BME280;34170;54.364;18.582;2023-05-01T08:42:07;100720.56;;;29.26;16.19
48364;BME280;34170;54.364;18.582;2023-05-01T08:44:36;100717.66;;;29.92;15.59
48364;BME280;34170;54.364;18.582;2023-05-01T08:47:14;100721.94;;;31.69;14.51
48364;BME280;34170;54.364;18.582;2023-05-01T08:49:42;100716.31;;;31.43;13.81
48364;BME280;34170;54.364;18.582;2023-05-01T08:52:11;100723.94;;;32.15;13.67
48364;BME280;34170;54.364;18.582;2023-05-01T08:54:42;100709.47;;;32.02;13.90
48364;BME280;34170;54.364;18.582;2023-05-01T08:57:11;100689.44;;;31.74;14.61
48364;BME280;34170;54.364;18.582;2023-05-01T08:59:39;100720.59;;;31.71;13.70
48364;BME280;34170;54.364;18.582;2023-05-01T09:02:08;100709.59;;;30.60;14.75
48364;BME280;34170;54.364;18.582;2023-05-01T09:04:38;100702.31;;;29.08;16.03
48364;BME280;34170;54.364;18.582;2023-05-01T09:07:06;100701.97;;;29.49;16.13
48364;BME280;34170;54.364;18.582;2023-05-01T09:09:34;100702.28;;;28.25;17.05
48364;BME280;34170;54.364;18.582;2023-05-01T09:12:22;100713.44;;;27.96;17.55
48364;BME280;34170;54.364;18.582;2023-05-01T09:14:52;100706.81;;;27.97;16.95
48364;BME280;34170;54.364;18.582;2023-05-01T09:17:21;100693.34;;;26.74;18.13
48364;BME280;34170;54.364;18.582;2023-05-01T09:19:49;100679.88;;;27.01;18.15
48364;BME280;34170;54.364;18.582;2023-05-01T09:22:18;100672.56;;;28.71;16.66
48364;BME280;34170;54.364;18.582;2023-05-01T09:24:45;100691.91;;;27.98;17.47
48364;BME280;34170;54.364;18.582;2023-05-01T09:27:13;100689.47;;;28.75;16.11
48364;BME280;34170;54.364;18.582;2023-05-01T09:29:42;100683.72;;;28.81;15.85
48364;BME280;34170;54.364;18.582;2023-05-01T09:32:24;100679.66;;;22.59;20.67
48364;BME280;34170;54.364;18.582;2023-05-01T09:35:07;100667.53;;;21.95;22.70
48364;BME280;34170;54.364;18.582;2023-05-01T09:37:35;100663.09;;;22.92;22.31
48364;BME280;34170;54.364;18.582;2023-05-01T09:40:10;100674.31;;;23.36;21.35
48364;BME280;34170;54.364;18.582;2023-05-01T09:42:40;100661.25;;;23.63;21.41
48364;BME280;34170;54.364;18.582;2023-05-01T09:45:14;100655.09;;;21.92;23.41
48364;BME280;34170;54.364;18.582;2023-05-01T09:47:42;100625.66;;;20.86;24.53
48364;BME280;34170;54.364;18.582;2023-05-01T09:50:32;100648.84;;;18.91;26.76
48364;BME280;34170;54.364;18.582;2023-05-01T09:53:02;100654.78;;;21.20;24.57
48364;BME280;34170;54.364;18.582;2023-05-01T09:55:31;100626.47;;;22.80;22.83
48364;BME280;34170;54.364;18.582;2023-05-01T09:57:59;100634.09;;;19.21;26.15
48364;BME280;34170;54.364;18.582;2023-05-01T10:00:26;100627.03;;;22.43;22.94
48364;BME280;34170;54.364;18.582;2023-05-01T10:02:54;100617.66;;;24.79;20.20
48364;BME280;34170;54.364;18.582;2023-05-01T10:05:22;100642.22;;;22.39;22.38
48364;BME280;34170;54.364;18.582;2023-05-01T10:08:01;100641.44;;;23.61;21.55
48364;BME280;34170;54.364;18.582;2023-05-01T10:10:29;100635.16;;;23.79;21.58
48364;BME280;34170;54.364;18.582;2023-05-01T10:13:12;100624.53;;;22.29;22.87
48364;BME280;34170;54.364;18.582;2023-05-01T10:15:40;100626.81;;;21.38;23.53
48364;BME280;34170;54.364;18.582;2023-05-01T10:18:09;100611.75;;;22.68;22.35
48364;BME280;34170;54.364;18.582;2023-05-01T10:20:39;100618.38;;;22.98;21.89
48364;BME280;34170;54.364;18.582;2023-05-01T10:23:07;100617.53;;;24.12;21.07
48364;BME280;34170;54.364;18.582;2023-05-01T10:25:35;100633.66;;;22.68;22.19
48364;BME280;34170;54.364;18.582;2023-05-01T10:28:04;100591.09;;;22.65;21.12
48364;BME280;34170;54.364;18.582;2023-05-01T10:30:33;100616.50;;;22.20;21.71
48364;BME280;34170;54.364;18.582;2023-05-01T10:33:02;100580.31;;;21.38;22.52
48364;BME280;34170;54.364;18.582;2023-05-01T10:35:36;100605.19;;;21.90;22.70
48364;BME280;34170;54.364;18.582;2023-05-01T10:38:07;100576.91;;;22.30;21.10
48364;BME280;34170;54.364;18.582;2023-05-01T10:45:44;100553.69;;;20.65;22.04
48364;BME280;34170;54.364;18.582;2023-05-01T10:51:16;100576.50;;;21.06;21.95
48364;BME280;34170;54.364;18.582;2023-05-01T10:53:45;100542.16;;;19.37;23.50
48364;BME280;34170;54.364;18.582;2023-05-01T10:59:00;100576.19;;;17.87;25.01
48364;BME280;34170;54.364;18.582;2023-05-01T11:01:40;100573.59;;;17.32;26.23
48364;BME280;34170;54.364;18.582;2023-05-01T11:09:35;100565.97;;;18.19;24.92
48364;BME280;34170;54.364;18.582;2023-05-01T11:12:04;100530.50;;;18.27;24.53
48364;BME280;34170;54.364;18.582;2023-05-01T11:22:53;100538.16;;;16.48;27.93
48364;BME280;34170;54.364;18.582;2023-05-01T11:25:24;100541.09;;;16.38;27.53
48364;BME280;34170;54.364;18.582;2023-05-01T11:28:00;100530.06;;;16.40;28.88
48364;BME280;34170;54.364;18.582;2023-05-01T11:30:39;100550.78;;;16.33;29.72
48364;BME280;34170;54.364;18.582;2023-05-01T11:33:06;100514.19;;;14.66;30.60
48364;BME280;34170;54.364;18.582;2023-05-01T11:35:37;100532.00;;;15.34;30.67
48364;BME280;34170;54.364;18.582;2023-05-01T11:38:05;100533.88;;;15.34;30.63
48364;BME280;34170;54.364;18.582;2023-05-01T11:40:33;100526.25;;;15.13;32.56
48364;BME280;34170;54.364;18.582;2023-05-01T11:43:05;100534.47;;;15.93;29.30
48364;BME280;34170;54.364;18.582;2023-05-01T11:45:34;100523.56;;;16.49;29.61
48364;BME280;34170;54.364;18.582;2023-05-01T11:48:02;100518.69;;;15.97;30.03
48364;BME280;34170;54.364;18.582;2023-05-01T11:50:32;100513.06;;;16.07;30.46
48364;BME280;34170;54.364;18.582;2023-05-01T11:53:03;100509.31;;;15.52;30.91
48364;BME280;34170;54.364;18.582;2023-05-01T11:55:37;100491.97;;;15.69;30.66
48364;BME280;34170;54.364;18.582;2023-05-01T11:58:06;100470.81;;;15.64;30.30
48364;BME280;34170;54.364;18.582;2023-05-01T12:00:35;100471.75;;;14.75;30.89
48364;BME280;34170;54.364;18.582;2023-05-01T12:03:09;100463.53;;;15.65;31.09
48364;BME280;34170;54.364;18.582;2023-05-01T12:05:42;100492.41;;;15.25;30.51
48364;BME280;34170;54.364;18.582;2023-05-01T12:08:18;100496.28;;;15.47;30.06
48364;BME280;34170;54.364;18.582;2023-05-01T12:10:49;100480.81;;;15.72;30.30
48364;BME280;34170;54.364;18.582;2023-05-01T12:13:18;100470.78;;;15.73;29.86
48364;BME280;34170;54.364;18.582;2023-05-01T12:15:49;100492.31;;;15.66;29.33
48364;BME280;34170;54.364;18.582;2023-05-01T12:18:18;100473.22;;;16.07;29.99
48364;BME280;34170;54.364;18.582;2023-05-01T12:20:54;100438.53;;;15.94;29.12
48364;BME280;34170;54.364;18.582;2023-05-01T12:23:34;100483.97;;;15.92;29.34
48364;BME280;34170;54.364;18.582;2023-05-01T12:26:15;100473.38;;;15.58;29.30
48364;BME280;34170;54.364;18.582;2023-05-01T12:28:56;100473.00;;;15.69;29.37
48364;BME280;34170;54.364;18.582;2023-05-01T12:31:25;100465.91;;;15.76;29.03
48364;BME280;34170;54.364;18.582;2023-05-01T12:34:00;100455.22;;;15.75;29.42
48364;BME280;34170;54.364;18.582;2023-05-01T12:36:30;100430.81;;;15.83;29.61
48364;BME280;34170;54.364;18.582;2023-05-01T12:39:01;100442.22;;;16.01;28.61
48364;BME280;34170;54.364;18.582;2023-05-01T12:41:42;100454.72;;;15.79;28.62
48364;BME280;34170;54.364;18.582;2023-05-01T12:44:17;100448.75;;;15.84;28.74
48364;BME280;34170;54.364;18.582;2023-05-01T12:47:01;100405.66;;;15.97;28.29
48364;BME280;34170;54.364;18.582;2023-05-01T12:49:30;100414.53;;;15.11;28.54
48364;BME280;34170;54.364;18.582;2023-05-01T12:52:00;100399.97;;;15.20;29.40
48364;BME280;34170;54.364;18.582;2023-05-01T12:54:29;100436.31;;;15.98;29.44
48364;BME280;34170;54.364;18.582;2023-05-01T12:57:17;100429.03;;;15.98;28.49
48364;BME280;34170;54.364;18.582;2023-05-01T12:59:45;100386.13;;;16.02;28.62
48364;BME280;34170;54.364;18.582;2023-05-01T13:02:16;100420.56;;;15.93;29.18
48364;BME280;34170;54.364;18.582;2023-05-01T13:04:44;100378.25;;;16.15;29.01
48364;BME280;34170;54.364;18.582;2023-05-01T13:07:14;100398.81;;;16.10;28.43
48364;BME280;34170;54.364;18.582;2023-05-01T13:09:53;100409.34;;;16.05;29.54
48364;BME280;34170;54.364;18.582;2023-05-01T13:12:21;100367.22;;;15.86;29.29
48364;BME280;34170;54.364;18.582;2023-05-01T13:14:49;100403.31;;;16.17;28.48
48364;BME280;34170;54.364;18.582;2023-05-01T13:17:23;100408.78;;;15.70;28.53
48364;BME280;34170;54.364;18.582;2023-05-01T13:19:56;100395.81;;;16.28;28.59
48364;BME280;34170;54.364;18.582;2023-05-01T13:22:36;100380.06;;;16.23;28.66
48364;BME280;34170;54.364;18.582;2023-05-01T13:25:13;100325.00;;;15.91;28.14
48364;BME280;34170;54.364;18.582;2023-05-01T13:27:47;100358.50;;;15.59;29.06
48364;BME280;34170;54.364;18.582;2023-05-01T13:30:15;100379.13;;;15.68;28.52
48364;BME280;34170;54.364;18.582;2023-05-01T13:32:46;100398.53;;;15.96;29.26
48364;BME280;34170;54.364;18.582;2023-05-01T13:35:22;100390.44;;;16.43;27.22